Time;durP1;ratioP1;P1;durP2;ratioP2;P2;SDS_P1;SDS_P2;PMS_P1;PMS_P2;Temp;Humidity;BMP_temperature;BMP_pressure;BME280_temperature;BME280_humidity;BME280_pressure;Samples;Min_cycle;Max_cycle;Signal;HPM_P1;HPM_P2
2024/01/12 00:01:12;;;;;;;12.75;8.88;;;;;;;-6.56;73.45;94762.19;5109556;27;20106;-65
2024/01/12 00:03:38;;;;;;;14.10;8.10;;;;;;;-6.89;74.01;94729.06;5109406;28;20483;-66
2024/01/12 00:06:04;;;;;;;15.23;9.25;;;;;;;-6.68;73.56;94767.47;5098277;28;20031;-66
2024/01/12 00:08:31;;;;;;;17.58;9.55;;;;;;;-6.82;73.57;94755.06;5105758;27;20391;-65
2024/01/12 00:10:56;;;;;;;14.50;9.68;;;;;;;-6.81;73.52;94757.56;5108525;27;20552;-66
2024/01/12 00:13:22;;;;;;;16.35;10.30;;;;;;;-6.92;73.43;94738.38;5088806;28;20241;-65
2024/01/12 00:15:47;;;;;;;14.60;9.82;;;;;;;-6.68;72.92;94767.47;5092266;28;20019;-66
2024/01/12 00:18:13;;;;;;;15.02;9.05;;;;;;;-6.71;73.20;94765.81;5110885;27;20034;-65
2024/01/12 00:20:42;;;;;;;14.35;8.77;;;;;;;-6.79;73.11;94760.91;5094406;27;20027;-66
2024/01/12 00:23:09;;;;;;;16.35;9.20;;;;;;;-6.86;73.19;94761.84;5108407;28;20079;-65
2024/01/12 00:25:34;;;;;;;13.23;9.05;;;;;;;-6.83;73.65;94768.53;5110334;27;20114;-66
2024/01/12 00:27:59;;;;;;;14.15;9.18;;;;;;;-7.13;74.10;94765.66;5106548;27;20421;-65
2024/01/12 00:30:25;;;;;;;15.27;9.18;;;;;;;-7.06;73.97;94767.22;5109865;27;20027;-65
2024/01/12 00:32:50;;;;;;;12.35;7.93;;;;;;;-6.96;74.00;94778.03;5088287;28;20028;-65
2024/01/12 00:35:16;;;;;;;14.88;10.48;;;;;;;-6.98;74.01;94772.16;5071198;28;20051;-65
2024/01/12 00:37:41;;;;;;;15.40;8.35;;;;;;;-7.08;74.07;94773.16;5107724;28;20043;-65
2024/01/12 00:40:07;;;;;;;14.70;9.00;;;;;;;-7.16;74.24;94769.91;5109400;28;20024;-65
2024/01/12 00:42:33;;;;;;;12.23;8.45;;;;;;;-7.10;74.27;94772.31;5093042;27;20059;-66
2024/01/12 00:44:58;;;;;;;12.13;8.52;;;;;;;-7.04;73.73;94770.56;5099463;27;20035;-66
2024/01/12 00:47:23;;;;;;;12.82;8.43;;;;;;;-7.11;73.76;94758.88;5100098;27;20035;-65
2024/01/12 00:49:49;;;;;;;13.30;8.00;;;;;;;-7.24;74.63;94770.88;5112017;28;20019;-65
2024/01/12 00:52:14;;;;;;;12.90;7.97;;;;;;;-7.08;74.44;94765.56;5111779;28;20038;-65
2024/01/12 00:54:40;;;;;;;16.42;9.25;;;;;;;-7.11;74.94;94758.03;5116367;27;20027;-65
2024/01/12 00:57:05;;;;;;;15.43;8.25;;;;;;;-7.14;75.10;94753.88;5101521;28;20036;-66
2024/01/12 00:59:30;;;;;;;13.20;8.00;;;;;;;-7.13;74.91;94747.13;5106633;28;20032;-66
2024/01/12 01:01:58;;;;;;;13.75;7.45;;;;;;;-6.97;74.14;94749.38;5091692;27;20055;-66
2024/01/12 01:04:25;;;;;;;12.48;8.38;;;;;;;-7.03;74.51;94741.09;5076847;28;20032;-66
2024/01/12 01:06:52;;;;;;;12.30;8.02;;;;;;;-6.98;74.46;94751.94;5096983;27;20115;-66
2024/01/12 01:09:17;;;;;;;17.00;8.48;;;;;;;-6.92;74.24;94751.84;5086450;28;20028;-66
2024/01/12 01:11:42;;;;;;;12.55;7.28;;;;;;;-6.88;74.12;94750.09;5107889;27;20027;-66
2024/01/12 01:14:08;;;;;;;13.15;7.43;;;;;;;-6.74;73.32;94753.25;5108116;27;20096;-65
2024/01/12 01:16:33;;;;;;;12.43;7.38;;;;;;;-6.76;73.16;94739.78;5109908;28;20071;-66
2024/01/12 01:18:59;;;;;;;12.15;7.32;;;;;;;-6.66;72.98;94742.97;5102385;28;20039;-66
2024/01/12 01:21:25;;;;;;;12.80;7.68;;;;;;;-6.75;74.03;94737.22;5116033;27;20026;-66
2024/01/12 01:23:51;;;;;;;12.02;7.72;;;;;;;-6.91;73.88;94730.75;5103102;28;20024;-66
2024/01/12 01:26:16;;;;;;;14.07;8.77;;;;;;;-6.77;73.86;94723.81;5087051;28;20035;-66
2024/01/12 01:28:41;;;;;;;15.18;8.88;;;;;;;-6.82;73.43;94710.41;5109349;28;20420;-65
2024/01/12 01:31:07;;;;;;;12.10;7.82;;;;;;;-6.84;73.98;94718.88;5103016;27;20027;-65
2024/01/12 01:33:32;;;;;;;12.25;8.00;;;;;;;-6.90;74.28;94711.41;5093952;28;20031;-66
2024/01/12 01:35:58;;;;;;;12.88;6.95;;;;;;;-6.87;74.08;94706.31;5104019;28;20047;-66
2024/01/12 01:38:23;;;;;;;8.65;6.13;;;;;;;-6.85;74.16;94705.41;5105649;28;20057;-66
2024/01/12 01:40:49;;;;;;;16.25;8.50;;;;;;;-6.80;72.23;94716.28;5115961;27;20043;-65
2024/01/12 01:43:14;;;;;;;25.25;13.90;;;;;;;-6.92;72.58;94708.91;5106403;28;20508;-65
2024/01/12 01:45:39;;;;;;;16.70;9.80;;;;;;;-6.89;72.50;94706.31;5111880;28;20028;-66
2024/01/12 01:48:05;;;;;;;15.35;9.10;;;;;;;-6.86;72.29;94701.22;5104221;27;20030;-66
2024/01/12 01:50:31;;;;;;;15.68;7.97;;;;;;;-6.83;72.49;94708.72;5131159;27;20030;-65
2024/01/12 01:52:56;;;;;;;12.15;6.47;;;;;;;-6.80;71.97;94698.59;5108823;27;20028;-66
2024/01/12 01:55:22;;;;;;;10.77;6.35;;;;;;;-6.88;71.59;94699.56;5072942;28;20028;-66
2024/01/12 01:57:47;;;;;;;10.85;6.18;;;;;;;-6.89;71.68;94692.88;5061854;28;20032;-65
2024/01/12 02:00:13;;;;;;;11.00;7.05;;;;;;;-6.95;71.98;94673.59;5072756;28;20085;-65
2024/01/12 02:02:39;;;;;;;16.23;7.47;;;;;;;-6.97;72.40;94691.28;5063873;28;20425;-65
2024/01/12 02:05:06;;;;;;;10.80;5.95;;;;;;;-6.99;71.71;94689.69;5091772;28;20031;-66
2024/01/12 02:07:31;;;;;;;13.75;6.68;;;;;;;-7.41;73.03;94694.53;5089207;28;20118;-66
2024/01/12 02:09:58;;;;;;;12.20;6.93;;;;;;;-7.37;72.18;94688.59;5101786;28;20028;-66
2024/01/12 02:12:23;;;;;;;21.25;10.57;;;;;;;-7.31;71.57;94688.50;5080144;27;20412;-66
2024/01/12 02:14:48;;;;;;;15.32;9.45;;;;;;;-7.49;71.87;94691.31;5118141;27;20039;-66
2024/01/12 02:17:14;;;;;;;13.05;7.20;;;;;;;-7.57;72.47;94661.16;5078198;28;20023;-66
2024/01/12 02:19:39;;;;;;;11.95;6.57;;;;;;;-7.60;72.05;94685.56;5093046;28;20035;-66
2024/01/12 02:22:04;;;;;;;13.80;6.40;;;;;;;-7.45;71.43;94693.75;5101655;27;20085;-66
2024/01/12 02:24:30;;;;;;;14.75;7.20;;;;;;;-7.55;71.67;94691.41;5090760;28;20417;-65
2024/01/12 02:26:55;;;;;;;12.68;7.65;;;;;;;-7.80;72.51;94696.81;5097823;28;20034;-65
2024/01/12 02:29:21;;;;;;;8.35;5.68;;;;;;;-7.51;71.75;94680.41;5110066;28;20028;-66
2024/01/12 02:31:46;;;;;;;9.27;5.82;;;;;;;-7.46;72.54;94691.28;5094232;28;20217;-66
2024/01/12 02:34:12;;;;;;;6.57;4.40;;;;;;;-7.54;71.11;94683.00;5109635;28;20028;-66
2024/01/12 02:36:37;;;;;;;9.45;5.38;;;;;;;-7.90;71.76;94678.44;5110311;28;20505;-66
2024/01/12 02:39:03;;;;;;;7.55;4.60;;;;;;;-7.57;72.17;94688.91;5071337;28;20417;-66
2024/01/12 02:41:28;;;;;;;9.85;7.20;;;;;;;-7.74;73.57;94685.81;5108374;28;20046;-66
2024/01/12 02:43:53;;;;;;;7.53;5.00;;;;;;;-7.72;72.18;94692.47;5104319;28;20036;-66
2024/01/12 02:46:19;;;;;;;8.18;4.50;;;;;;;-7.79;71.85;94693.44;5109582;28;20402;-66
2024/01/12 02:48:44;;;;;;;17.70;9.23;;;;;;;-7.60;72.59;94678.00;5119426;28;20024;-66
2024/01/12 02:51:10;;;;;;;13.63;8.10;;;;;;;-7.67;72.86;94679.81;5109250;28;20114;-66
2024/01/12 02:53:35;;;;;;;12.15;7.78;;;;;;;-7.44;72.29;94684.50;5105313;28;20485;-66
2024/01/12 02:56:00;;;;;;;10.65;6.32;;;;;;;-7.29;71.99;94681.75;5102751;28;20038;-66
2024/01/12 02:58:26;;;;;;;8.27;5.35;;;;;;;-7.51;72.67;94693.03;5122556;28;20035;-66
2024/01/12 03:00:52;;;;;;;8.40;5.22;;;;;;;-7.30;73.31;94690.19;5105192;27;20024;-66
2024/01/12 03:03:18;;;;;;;8.85;6.25;;;;;;;-7.34;72.95;94683.50;5100361;28;20462;-66
2024/01/12 03:05:43;;;;;;;8.98;6.28;;;;;;;-7.44;71.52;94697.97;5106612;28;20164;-66
2024/01/12 03:08:09;;;;;;;9.85;6.00;;;;;;;-7.72;72.60;94709.31;5102833;28;20036;-66
2024/01/12 03:10:34;;;;;;;12.43;7.97;;;;;;;-7.50;72.62;94687.13;5109660;28;20036;-66
2024/01/12 03:13:00;;;;;;;15.70;9.43;;;;;;;-7.46;72.17;94694.63;5091450;28;20036;-66
2024/01/12 03:15:25;;;;;;;14.32;9.27;;;;;;;-7.32;72.31;94694.41;5089957;28;20089;-66
2024/01/12 03:17:50;;;;;;;15.50;9.07;;;;;;;-7.25;71.48;94692.63;5104365;28;20082;-66
2024/01/12 03:20:16;;;;;;;16.20;9.15;;;;;;;-7.56;72.98;94698.13;5090463;28;20470;-66
2024/01/12 03:22:41;;;;;;;15.90;9.23;;;;;;;-7.45;72.95;94695.47;5093959;28;20040;-66
2024/01/12 03:25:07;;;;;;;15.82;8.77;;;;;;;-7.15;72.46;94700.88;5096491;28;20035;-66
2024/01/12 03:27:33;;;;;;;12.43;7.10;;;;;;;-7.20;71.98;94701.78;5122418;27;20467;-66
2024/01/12 03:29:59;;;;;;;14.43;8.43;;;;;;;-7.17;72.07;94695.84;5084552;28;20027;-66
2024/01/12 03:32:24;;;;;;;10.05;7.13;;;;;;;-7.20;71.69;94696.72;5084501;28;20028;-66
2024/01/12 03:34:49;;;;;;;10.88;5.90;;;;;;;-7.35;72.55;94691.94;5100660;28;20020;-66
2024/01/12 03:37:15;;;;;;;7.95;4.72;;;;;;;-7.36;72.09;94675.13;5098043;28;20039;-66
2024/01/12 03:39:40;;;;;;;9.63;5.10;;;;;;;-7.68;73.07;94676.44;5102920;28;20524;-66
2024/01/12 03:42:06;;;;;;;6.88;4.55;;;;;;;-7.38;71.99;94678.50;5089793;28;20044;-66
2024/01/12 03:44:31;;;;;;;7.82;4.72;;;;;;;-7.44;72.09;94685.34;5122923;28;20051;-66
2024/01/12 03:46:57;;;;;;;11.48;6.32;;;;;;;-7.33;72.12;94690.19;5096572;28;20024;-66
2024/01/12 03:49:22;;;;;;;8.93;4.53;;;;;;;-7.49;72.62;94677.00;5110577;28;20031;-66
2024/01/12 03:51:53;;;;;;;6.97;4.53;;;;;;;-7.52;71.87;94673.69;5103567;27;20078;-66
2024/01/12 03:54:22;;;;;;;7.28;4.55;;;;;;;-7.40;72.17;94673.50;5092484;28;20050;-66
2024/01/12 03:56:47;;;;;;;7.07;4.75;;;;;;;-7.73;73.60;94687.47;5076264;28;20132;-66
2024/01/12 03:59:13;;;;;;;6.35;3.95;;;;;;;-7.51;73.19;94667.78;5122359;27;20035;-66
2024/01/12 04:01:45;;;;;;;7.78;5.05;;;;;;;-7.66;73.04;94683.97;5110938;27;20140;-66
2024/01/12 04:04:10;;;;;;;6.95;4.63;;;;;;;-7.45;72.12;94683.66;5105888;28;20035;-66
2024/01/12 04:06:36;;;;;;;13.35;7.00;;;;;;;-7.42;71.79;94682.78;5095131;27;20050;-66
2024/01/12 04:09:01;;;;;;;8.75;5.68;;;;;;;-7.44;72.16;94684.50;5107083;27;20033;-66
2024/01/12 04:11:27;;;;;;;8.02;5.38;;;;;;;-7.55;73.25;94678.78;5058229;28;20024;-66
2024/01/12 04:13:52;;;;;;;8.07;4.45;;;;;;;-7.64;72.59;94662.09;5103885;28;20414;-66
2024/01/12 04:16:19;;;;;;;6.63;4.22;;;;;;;-7.48;70.71;94668.56;5078008;28;20036;-66
2024/01/12 04:18:44;;;;;;;6.47;4.15;;;;;;;-7.37;71.37;94686.06;5110542;27;20122;-66
2024/01/12 04:21:09;;;;;;;6.55;4.45;;;;;;;-7.34;72.58;94670.06;5094889;28;20032;-66
2024/01/12 04:23:35;;;;;;;9.98;5.28;;;;;;;-7.29;71.25;94674.16;5091745;28;20028;-66
2024/01/12 04:26:00;;;;;;;9.15;5.60;;;;;;;-7.22;71.69;94685.81;5104454;28;20478;-66
2024/01/12 04:28:26;;;;;;;7.95;4.72;;;;;;;-7.10;72.25;94689.00;5129154;27;20488;-66
2024/01/12 04:30:51;;;;;;;8.45;4.50;;;;;;;-6.96;71.49;94682.03;5120062;27;20157;-66
2024/01/12 04:33:16;;;;;;;7.13;4.05;;;;;;;-6.87;72.17;94679.34;5097034;28;20494;-66
2024/01/12 04:35:42;;;;;;;6.38;4.03;;;;;;;-6.90;72.16;94678.56;5092330;28;20052;-66
2024/01/12 04:38:09;;;;;;;7.97;5.32;;;;;;;-6.93;72.57;94676.94;5103717;28;20027;-66
2024/01/12 04:40:35;;;;;;;6.88;4.55;;;;;;;-6.78;72.51;94686.75;5111899;28;20027;-68
2024/01/12 04:43:00;;;;;;;7.57;4.75;;;;;;;-6.90;72.14;94666.78;5102721;28;20028;-66
2024/01/12 04:45:25;;;;;;;7.05;4.50;;;;;;;-6.85;71.57;94695.31;5113175;28;20039;-66
2024/01/12 04:47:51;;;;;;;10.35;4.85;;;;;;;-6.88;71.56;94680.22;5108351;27;20036;-66
2024/01/12 04:50:16;;;;;;;6.57;4.22;;;;;;;-6.88;69.47;94674.31;5057629;28;20500;-66
2024/01/12 04:52:42;;;;;;;7.03;4.32;;;;;;;-6.84;69.13;94669.19;5074425;28;20097;-66
2024/01/12 04:55:08;;;;;;;7.15;4.10;;;;;;;-6.73;69.86;94678.28;5077901;28;20028;-66
2024/01/12 04:57:33;;;;;;;7.07;4.70;;;;;;;-6.62;71.04;94659.50;5082288;28;20114;-67
2024/01/12 04:59:58;;;;;;;5.60;3.85;;;;;;;-6.43;70.98;94676.88;5109485;28;20024;-66
2024/01/12 05:02:24;;;;;;;7.57;4.70;;;;;;;-6.40;70.47;94675.09;5101657;28;20505;-66
2024/01/12 05:04:49;;;;;;;9.45;5.65;;;;;;;-6.60;70.59;94687.28;5097226;28;20020;-66
2024/01/12 05:07:15;;;;;;;61.38;27.35;;;;;;;-6.68;70.83;94691.66;5079300;28;20462;-66
2024/01/12 05:09:40;;;;;;;45.80;22.15;;;;;;;-6.53;70.88;94699.78;5111118;28;20031;-66
2024/01/12 05:12:06;;;;;;;54.97;23.50;;;;;;;-6.52;70.99;94693.00;5106183;28;20047;-66
2024/01/12 05:14:32;;;;;;;23.27;12.15;;;;;;;-6.51;71.48;94682.06;5108499;28;20405;-66
2024/01/12 05:16:57;;;;;;;23.38;11.70;;;;;;;-6.71;72.08;94695.06;5095596;27;20597;-66
2024/01/12 05:19:23;;;;;;;14.60;7.28;;;;;;;-6.45;71.17;94704.69;5102970;27;20077;-66
2024/01/12 05:21:49;;;;;;;14.73;7.57;;;;;;;-6.90;70.72;94659.19;5094870;28;20143;-66
2024/01/12 05:24:15;;;;;;;14.32;6.88;;;;;;;-6.77;70.35;94713.69;5102141;28;20124;-65
2024/01/12 05:26:40;;;;;;;10.73;6.75;;;;;;;-6.88;69.94;94710.53;5102139;27;20027;-67
2024/01/12 05:29:08;;;;;;;9.32;5.95;;;;;;;-6.87;69.88;94697.03;5092248;28;20054;-67
2024/01/12 05:31:33;;;;;;;10.50;7.00;;;;;;;-6.75;69.73;94711.97;5111262;28;20460;-66
2024/01/12 05:33:59;;;;;;;10.73;6.65;;;;;;;-7.00;70.82;94721.66;5087612;28;20465;-66
2024/01/12 05:36:24;;;;;;;10.02;5.63;;;;;;;-6.87;71.07;94726.50;5100149;28;20048;-67
2024/01/12 05:38:49;;;;;;;10.93;5.88;;;;;;;-6.99;70.38;94719.97;5108656;28;20023;-64
2024/01/12 05:41:15;;;;;;;9.50;5.15;;;;;;;-6.89;69.50;94721.47;5111685;28;20106;-65
2024/01/12 05:43:40;;;;;;;8.18;5.45;;;;;;;-6.88;68.85;94730.75;5102145;28;20477;-64
2024/01/12 05:46:07;;;;;;;12.10;7.07;;;;;;;-6.93;70.17;94721.56;5109225;28;20031;-64
2024/01/12 05:48:33;;;;;;;18.05;9.80;;;;;;;-6.86;70.23;94713.84;5126908;27;20043;-66
2024/01/12 05:50:58;;;;;;;18.08;11.32;;;;;;;-6.92;70.31;94713.94;5100078;27;20055;-64
2024/01/12 05:53:25;;;;;;;21.73;10.68;;;;;;;-6.81;70.12;94724.72;5101249;27;20489;-64
2024/01/12 05:55:52;;;;;;;17.30;10.93;;;;;;;-6.87;70.46;94727.34;5109756;28;20036;-65
2024/01/12 05:58:17;;;;;;;11.75;8.73;;;;;;;-6.77;70.46;94718.75;5110561;28;20055;-65
2024/01/12 06:00:43;;;;;;;11.43;7.90;;;;;;;-6.72;69.87;94731.28;5111298;28;20020;-65
2024/01/12 06:03:08;;;;;;;14.48;7.32;;;;;;;-6.70;70.04;94726.22;5105283;28;20035;-65
2024/01/12 06:05:34;;;;;;;14.15;7.97;;;;;;;-6.99;70.37;94722.50;5091021;28;20092;-64
2024/01/12 06:08:00;;;;;;;10.50;7.05;;;;;;;-7.06;70.78;94726.81;5102307;28;20458;-65
2024/01/12 06:10:25;;;;;;;14.15;7.20;;;;;;;-7.03;70.33;94739.38;5107981;28;20031;-64
2024/01/12 06:12:52;;;;;;;12.52;6.78;;;;;;;-6.98;70.18;94730.03;5095341;28;20028;-64
2024/01/12 06:15:18;;;;;;;9.20;6.18;;;;;;;-6.90;69.91;94731.63;5091012;28;20028;-64
2024/01/12 06:17:43;;;;;;;9.57;6.68;;;;;;;-6.79;69.81;94722.16;5090567;28;20093;-64
2024/01/12 06:20:09;;;;;;;10.40;6.75;;;;;;;-6.59;69.39;94730.22;5109127;28;20043;-65
2024/01/12 06:22:35;;;;;;;21.45;16.58;;;;;;;-6.66;69.73;94725.28;5095326;28;20033;-65
2024/01/12 06:25:00;;;;;;;13.68;9.10;;;;;;;-6.71;69.49;94716.97;5108906;28;20035;-64
2024/01/12 06:27:26;;;;;;;11.30;8.45;;;;;;;-6.73;70.18;94733.88;5104187;28;20445;-64
2024/01/12 06:29:51;;;;;;;14.48;8.57;;;;;;;-6.67;70.21;94729.53;5110292;28;20031;-64
2024/01/12 06:32:16;;;;;;;11.65;6.75;;;;;;;-6.81;71.08;94741.56;5090729;28;20027;-65
2024/01/12 06:34:42;;;;;;;8.85;6.45;;;;;;;-6.71;71.23;94735.50;5104713;28;20113;-65
2024/01/12 06:37:07;;;;;;;10.25;6.30;;;;;;;-6.72;70.81;94740.56;5092261;28;20047;-65
2024/01/12 06:39:33;;;;;;;9.43;6.00;;;;;;;-6.71;71.63;94742.22;5109364;28;20031;-65
2024/01/12 06:41:58;;;;;;;10.50;6.57;;;;;;;-6.82;70.24;94728.09;5089009;28;20588;-65
2024/01/12 06:44:24;;;;;;;10.60;6.60;;;;;;;-7.06;70.59;94741.97;5102130;28;20425;-65
2024/01/12 06:46:49;;;;;;;39.80;23.38;;;;;;;-7.23;70.77;94699.31;5106934;28;20470;-65
2024/01/12 06:49:15;;;;;;;23.98;14.95;;;;;;;-6.86;70.94;94745.84;5103558;28;20035;-65
2024/01/12 06:51:40;;;;;;;15.05;8.20;;;;;;;-6.90;70.81;94747.59;5111740;28;20027;-65
2024/01/12 06:54:05;;;;;;;12.00;6.78;;;;;;;-7.11;71.21;94720.16;5089767;28;20031;-65
2024/01/12 06:56:32;;;;;;;10.20;6.97;;;;;;;-6.89;70.39;94744.22;5101577;28;20088;-64
2024/01/12 06:58:58;;;;;;;9.70;6.43;;;;;;;-6.76;70.74;94760.84;5110964;28;20401;-64
2024/01/12 07:01:24;;;;;;;9.82;6.68;;;;;;;-6.76;69.89;94753.25;5110552;28;20028;-64
2024/01/12 07:03:51;;;;;;;9.90;6.43;;;;;;;-6.81;69.39;94755.03;5109298;28;20032;-64
2024/01/12 07:06:17;;;;;;;9.60;5.53;;;;;;;-6.89;66.39;94736.63;5108333;28;20020;-67
2024/01/12 07:08:42;;;;;;;9.32;5.75;;;;;;;-6.48;67.11;94750.25;5109642;28;20032;-65
2024/01/12 07:11:08;;;;;;;7.78;4.55;;;;;;;-6.36;66.09;94752.53;5106789;28;20028;-64
2024/01/12 07:13:33;;;;;;;10.00;5.57;;;;;;;-6.44;65.70;94758.59;5104536;28;20032;-65
2024/01/12 07:15:59;;;;;;;8.38;5.28;;;;;;;-6.26;65.62;94763.34;5108780;28;20036;-64
2024/01/12 07:18:24;;;;;;;7.25;4.97;;;;;;;-6.21;64.98;94768.28;5109911;28;20394;-69
2024/01/12 07:20:49;;;;;;;10.15;6.00;;;;;;;-6.07;63.52;94771.41;5086937;28;20031;-64
2024/01/12 07:23:15;;;;;;;8.23;5.05;;;;;;;-5.99;63.31;94759.44;5109920;28;20538;-65
2024/01/12 07:25:40;;;;;;;10.80;5.93;;;;;;;-5.90;64.51;94771.06;5101663;28;20024;-65
2024/01/12 07:28:06;;;;;;;7.20;5.22;;;;;;;-5.85;63.24;94775.16;5097754;28;20039;-64
2024/01/12 07:30:31;;;;;;;11.13;7.00;;;;;;;-5.62;65.90;94779.75;5113379;28;20424;-65
2024/01/12 07:32:57;;;;;;;9.30;4.90;;;;;;;-5.55;62.06;94785.50;5095868;28;20031;-64
2024/01/12 07:35:22;;;;;;;10.88;6.30;;;;;;;-5.52;63.70;94780.38;5095853;28;20402;-63
2024/01/12 07:37:48;;;;;;;11.30;6.25;;;;;;;-5.43;62.58;94792.84;5104169;28;20032;-63
2024/01/12 07:40:13;;;;;;;7.13;5.45;;;;;;;-5.31;62.81;94786.69;5114264;28;20089;-63
2024/01/12 07:42:39;;;;;;;14.18;6.50;;;;;;;-5.32;61.69;94786.69;5112979;28;20067;-64
2024/01/12 07:45:05;;;;;;;9.23;6.05;;;;;;;-5.20;62.29;94796.59;5112368;28;20040;-67
2024/01/12 07:47:30;;;;;;;9.02;5.45;;;;;;;-5.22;62.50;94794.06;5094591;28;20043;-63
2024/01/12 07:49:55;;;;;;;8.57;5.53;;;;;;;-4.78;63.85;94809.13;5113870;28;20032;-63
2024/01/12 07:52:21;;;;;;;12.15;6.38;;;;;;;-4.74;63.58;94815.78;5092101;28;20032;-64
2024/01/12 07:54:46;;;;;;;12.25;7.00;;;;;;;-4.72;63.08;94816.59;5112121;28;20081;-63
2024/01/12 07:57:12;;;;;;;13.02;7.93;;;;;;;-4.86;62.65;94831.28;5111988;28;20028;-63
2024/01/12 07:59:37;;;;;;;19.70;10.48;;;;;;;-4.66;62.78;94824.03;5113976;28;20023;-63
2024/01/12 08:02:03;;;;;;;15.85;8.10;;;;;;;-4.75;60.71;94836.94;5112133;28;20039;-63
2024/01/12 08:04:28;;;;;;;15.02;8.13;;;;;;;-4.47;61.06;94838.84;5112608;28;20019;-64
2024/01/12 08:06:54;;;;;;;14.13;7.38;;;;;;;-4.27;60.61;94829.03;5112581;28;20501;-63
2024/01/12 08:09:19;;;;;;;13.75;7.97;;;;;;;-4.22;61.09;94826.38;5113850;28;20035;-63
2024/01/12 08:11:44;;;;;;;14.82;8.05;;;;;;;-4.24;61.06;94836.53;5114135;28;20038;-64
2024/01/12 08:14:10;;;;;;;10.27;6.63;;;;;;;-4.00;59.83;94829.19;5104703;28;20028;-63
2024/01/12 08:16:35;;;;;;;11.60;7.07;;;;;;;-3.91;59.15;94834.03;5110953;28;20486;-64
2024/01/12 08:19:01;;;;;;;15.05;8.00;;;;;;;-3.94;58.97;94834.09;5094989;28;20035;-64
2024/01/12 08:21:26;;;;;;;13.80;7.97;;;;;;;-3.71;58.92;94831.78;5111566;28;20465;-65
2024/01/12 08:23:51;;;;;;;11.88;6.88;;;;;;;-4.00;57.91;94844.44;5112249;28;20036;-63
2024/01/12 08:26:19;;;;;;;15.52;8.13;;;;;;;-3.86;58.80;94834.75;5112302;28;20028;-64
2024/01/12 08:28:45;;;;;;;10.85;6.70;;;;;;;-3.69;58.44;94850.34;5091455;28;20091;-64
2024/01/12 08:31:11;;;;;;;10.45;6.57;;;;;;;-3.59;57.91;94830.63;5113175;28;20027;-64
2024/01/12 08:33:37;;;;;;;13.30;7.60;;;;;;;-3.40;58.01;94836.00;5091032;28;20036;-65
2024/01/12 08:36:03;;;;;;;13.77;7.50;;;;;;;-3.63;58.33;94836.66;5091148;28;20052;-64
2024/01/12 08:38:29;;;;;;;12.45;7.55;;;;;;;-3.57;58.74;94853.44;5096865;28;20043;-64
2024/01/12 08:40:55;;;;;;;12.82;7.18;;;;;;;-3.79;59.16;94859.06;5110996;28;20024;-65
2024/01/12 08:43:20;;;;;;;15.15;8.50;;;;;;;-3.65;58.56;94851.09;5095777;28;20097;-63
2024/01/12 08:45:46;;;;;;;20.38;12.38;;;;;;;-3.41;59.16;94869.91;5112847;27;20463;-63
2024/01/12 08:48:11;;;;;;;18.35;9.65;;;;;;;-3.68;59.38;94864.69;5109127;28;20039;-63
2024/01/12 08:50:37;;;;;;;16.05;8.70;;;;;;;-3.82;60.49;94870.16;5112080;28;20047;-64
2024/01/12 08:53:03;;;;;;;21.83;10.80;;;;;;;-3.67;60.56;94874.00;5110523;28;20506;-64
2024/01/12 08:55:28;;;;;;;15.75;8.63;;;;;;;-3.49;60.10;94874.38;5110271;28;20028;-63
2024/01/12 08:57:54;;;;;;;12.63;7.70;;;;;;;-3.45;60.06;94874.25;5111463;28;20424;-64
2024/01/12 09:00:19;;;;;;;16.50;8.85;;;;;;;-3.47;60.31;94877.72;5111569;28;20031;-63
2024/01/12 09:02:45;;;;;;;11.50;7.10;;;;;;;-3.57;61.20;94858.50;5110362;28;20047;-63
2024/01/12 09:05:11;;;;;;;17.25;9.43;;;;;;;-3.25;60.70;94876.22;5110476;28;20039;-64
2024/01/12 09:07:36;;;;;;;21.55;14.68;;;;;;;-3.23;61.31;94873.63;5111544;28;20044;-63
2024/01/12 09:10:02;;;;;;;27.15;14.52;;;;;;;-2.98;60.65;94876.31;5110032;28;20027;-64
2024/01/12 09:12:28;;;;;;;18.10;9.73;;;;;;;-3.17;60.71;94879.41;5110729;28;20023;-64
2024/01/12 09:14:53;;;;;;;17.80;9.18;;;;;;;-3.50;62.00;94873.53;5110721;28;20081;-64
2024/01/12 09:17:19;;;;;;;17.25;9.75;;;;;;;-3.19;61.79;94882.84;5110796;28;20046;-64
2024/01/12 09:19:44;;;;;;;24.63;13.95;;;;;;;-2.97;62.34;94878.81;5109694;28;20016;-63
2024/01/12 09:22:11;;;;;;;22.85;15.20;;;;;;;-2.84;61.17;94888.63;5091530;28;20031;-64
2024/01/12 09:24:36;;;;;;;25.90;17.50;;;;;;;-2.57;60.83;94890.31;5099144;28;20054;-64
2024/01/12 09:27:02;;;;;;;20.23;14.82;;;;;;;-2.65;61.11;94874.47;5111200;28;20079;-64
2024/01/12 09:29:27;;;;;;;32.08;22.63;;;;;;;-2.55;60.47;94880.13;5109863;28;20031;-64
2024/01/12 09:31:52;;;;;;;31.13;16.25;;;;;;;-2.53;60.79;94868.19;5110616;28;20043;-64
2024/01/12 09:34:18;;;;;;;35.50;20.70;;;;;;;-2.51;60.71;94869.81;5110086;28;20020;-64
2024/01/12 09:36:43;;;;;;;31.98;19.83;;;;;;;-2.62;61.30;94860.81;5111475;28;20047;-64
2024/01/12 09:39:14;;;;;;;15.55;10.10;;;;;;;-2.96;61.05;94860.13;5111387;28;20016;-64
2024/01/12 09:41:47;;;;;;;18.42;10.35;;;;;;;-3.21;62.25;94821.91;5110483;28;20040;-64
2024/01/12 09:44:13;;;;;;;18.05;10.13;;;;;;;-3.26;62.62;94874.59;5078858;27;20060;-64
2024/01/12 09:46:51;;;;;;;19.35;10.82;;;;;;;-3.27;62.73;94872.91;5080992;28;20020;-65
2024/01/12 09:49:17;;;;;;;17.85;9.00;;;;;;;-3.36;62.48;94852.84;5090989;28;20039;-64
2024/01/12 09:51:42;;;;;;;19.52;10.93;;;;;;;-3.19;63.22;94859.97;5109094;28;20481;-64
2024/01/12 09:54:07;;;;;;;17.95;10.85;;;;;;;-3.03;62.64;94863.75;5110536;28;20061;-64
2024/01/12 09:56:33;;;;;;;17.25;11.05;;;;;;;-3.19;62.74;94850.66;5108180;28;20085;-65
2024/01/12 09:58:58;;;;;;;21.42;12.32;;;;;;;-3.08;62.70;94854.59;5083585;28;20036;-65
2024/01/12 10:01:24;;;;;;;19.73;11.63;;;;;;;-2.78;63.30;94868.94;5088965;28;20480;-65
2024/01/12 10:03:49;;;;;;;23.40;13.38;;;;;;;-2.62;63.12;94881.19;5105594;28;20060;-65
2024/01/12 10:06:14;;;;;;;23.90;13.02;;;;;;;-2.45;62.15;94875.56;5104320;28;20271;-65
2024/01/12 10:08:40;;;;;;;18.50;11.27;;;;;;;-2.59;61.62;94871.75;5099167;28;20089;-65
2024/01/12 10:11:05;;;;;;;18.83;11.88;;;;;;;-2.68;61.95;94866.94;5109348;28;20097;-66
2024/01/12 10:13:31;;;;;;;19.92;11.13;;;;;;;-2.39;61.64;94878.75;5092166;28;20416;-64
2024/01/12 10:15:56;;;;;;;19.92;10.45;;;;;;;-2.45;61.71;94873.88;5110100;28;20446;-65
2024/01/12 10:18:22;;;;;;;19.42;12.23;;;;;;;-2.17;60.61;94871.28;5090392;28;20402;-65
2024/01/12 10:20:48;;;;;;;20.42;11.95;;;;;;;-2.94;61.96;94871.09;5110058;28;20292;-64
2024/01/12 10:23:21;;;;;;;17.75;10.32;;;;;;;-2.83;62.67;94877.59;5092694;28;20124;-65
2024/01/12 10:25:57;;;;;;;27.33;15.15;;;;;;;-2.51;62.04;94876.59;5097608;27;20030;-64
2024/01/12 10:28:22;;;;;;;17.08;10.57;;;;;;;-2.70;62.06;94883.97;5130584;27;20031;-64
2024/01/12 10:30:48;;;;;;;19.83;11.07;;;;;;;-2.54;61.77;94886.88;5130371;27;20101;-64
2024/01/12 10:33:13;;;;;;;17.60;9.73;;;;;;;-2.88;62.21;94877.72;5130584;27;20066;-64
2024/01/12 10:35:39;;;;;;;20.48;11.82;;;;;;;-2.84;61.86;94842.84;5096023;28;20043;-64
2024/01/12 10:38:05;;;;;;;30.02;17.98;;;;;;;-2.27;61.28;94867.34;5099933;28;20043;-65
2024/01/12 10:40:31;;;;;;;30.75;17.30;;;;;;;-2.47;62.59;94875.63;5075393;28;20027;-64
2024/01/12 10:42:57;;;;;;;17.83;9.88;;;;;;;-2.35;61.65;94872.69;5093769;28;20035;-64
2024/01/12 10:45:23;;;;;;;20.58;10.57;;;;;;;-2.38;62.19;94867.69;5108511;28;20026;-65
2024/01/12 10:48:01;;;;;;;19.75;11.13;;;;;;;-2.82;62.28;94864.81;5109329;28;20023;-64
2024/01/12 10:50:27;;;;;;;19.95;13.10;;;;;;;-2.62;62.39;94876.09;5093231;28;20066;-64
2024/01/12 10:53:28;;;;;;;18.17;12.55;;;;;;;-2.49;62.20;94870.56;5075316;28;20063;-64
2024/01/12 10:55:55;;;;;;;20.15;13.13;;;;;;;-2.36;62.48;94877.84;5104847;28;20108;-64
2024/01/12 10:58:21;;;;;;;22.63;12.60;;;;;;;-2.34;61.96;94879.47;5109331;28;20035;-64
2024/01/12 11:00:46;;;;;;;19.10;11.00;;;;;;;-2.40;62.02;94861.81;5112907;28;20028;-64
2024/01/12 11:03:12;;;;;;;21.75;14.07;;;;;;;-2.21;61.79;94856.16;5094503;27;20035;-64
2024/01/12 11:05:38;;;;;;;29.90;19.42;;;;;;;-2.02;61.20;94875.03;5098537;28;20035;-65
2024/01/12 11:08:06;;;;;;;21.95;13.82;;;;;;;-2.35;61.40;94870.16;5114279;28;20069;-64
2024/01/12 11:10:31;;;;;;;19.90;12.55;;;;;;;-2.25;62.02;94875.78;5112789;28;20032;-64
2024/01/12 11:12:57;;;;;;;39.20;23.63;;;;;;;-2.53;62.46;94875.81;5092490;28;20409;-64
2024/01/12 11:15:22;;;;;;;27.10;15.70;;;;;;;-2.75;62.88;94876.47;5106885;28;20040;-64
2024/01/12 11:17:48;;;;;;;24.35;13.43;;;;;;;-2.52;63.15;94874.94;5100471;28;20020;-65